sensor_id;sensor_type;location;lat;lon;timestamp;P1;durP1;ratioP1;P2;durP2;ratioP2
18677;SDS011;9469;51.114;13.914;2024-01-16T00:02:38;8.00;;;3.43;;
18677;SDS011;9469;51.114;13.914;2024-01-16T00:07:43;3.57;;;3.23;;
18677;SDS011;9469;51.114;13.914;2024-01-16T00:12:51;5.80;;;2.80;;
18677;SDS011;9469;51.114;13.914;2024-01-16T00:17:56;4.53;;;3.27;;
18677;SDS011;9469;51.114;13.914;2024-01-16T00:23:02;6.70;;;2.97;;
18677;SDS011;9469;51.114;13.914;2024-01-16T00:28:10;6.20;;;3.00;;
18677;SDS011;9469;51.114;13.914;2024-01-16T00:33:15;3.70;;;2.60;;
18677;SDS011;9469;51.114;13.914;2024-01-16T00:38:20;4.17;;;2.83;;
18677;SDS011;9469;51.114;13.914;2024-01-16T00:43:28;6.20;;;2.47;;
18677;SDS011;9469;51.114;13.914;2024-01-16T00:48:33;6.33;;;3.00;;
18677;SDS011;9469;51.114;13.914;2024-01-16T00:53:41;5.43;;;2.90;;
18677;SDS011;9469;51.114;13.914;2024-01-16T00:58:49;3.87;;;3.10;;
18677;SDS011;9469;51.114;13.914;2024-01-16T01:03:55;8.63;;;2.97;;
18677;SDS011;9469;51.114;13.914;2024-01-16T01:09:01;6.00;;;3.17;;
18677;SDS011;9469;51.114;13.914;2024-01-16T01:14:09;4.20;;;3.60;;
18677;SDS011;9469;51.114;13.914;2024-01-16T01:19:14;4.40;;;3.20;;
18677;SDS011;9469;51.114;13.914;2024-01-16T01:24:20;4.97;;;3.13;;
18677;SDS011;9469;51.114;13.914;2024-01-16T01:29:28;5.97;;;3.20;;
18677;SDS011;9469;51.114;13.914;2024-01-16T01:34:34;4.07;;;3.37;;
18677;SDS011;9469;51.114;13.914;2024-01-16T01:39:40;7.03;;;3.37;;
18677;SDS011;9469;51.114;13.914;2024-01-16T01:44:50;7.53;;;3.67;;
18677;SDS011;9469;51.114;13.914;2024-01-16T01:49:55;9.83;;;4.23;;
18677;SDS011;9469;51.114;13.914;2024-01-16T01:55:03;7.47;;;3.90;;
18677;SDS011;9469;51.114;13.914;2024-01-16T02:00:12;7.47;;;4.57;;
18677;SDS011;9469;51.114;13.914;2024-01-16T02:05:19;5.83;;;3.53;;
18677;SDS011;9469;51.114;13.914;2024-01-16T02:10:25;6.50;;;5.30;;
18677;SDS011;9469;51.114;13.914;2024-01-16T02:15:33;6.70;;;4.17;;
18677;SDS011;9469;51.114;13.914;2024-01-16T02:20:41;5.63;;;5.03;;
18677;SDS011;9469;51.114;13.914;2024-01-16T02:25:49;5.63;;;3.57;;
18677;SDS011;9469;51.114;13.914;2024-01-16T02:30:54;10.30;;;4.53;;
18677;SDS011;9469;51.114;13.914;2024-01-16T02:35:59;5.83;;;4.23;;
18677;SDS011;9469;51.114;13.914;2024-01-16T02:41:07;4.27;;;3.87;;
18677;SDS011;9469;51.114;13.914;2024-01-16T02:46:12;8.73;;;3.83;;
18677;SDS011;9469;51.114;13.914;2024-01-16T02:51:17;4.60;;;4.10;;
18677;SDS011;9469;51.114;13.914;2024-01-16T02:56:27;6.23;;;3.77;;
18677;SDS011;9469;51.114;13.914;2024-01-16T03:01:32;4.27;;;3.87;;
18677;SDS011;9469;51.114;13.914;2024-01-16T03:06:37;5.13;;;4.00;;
18677;SDS011;9469;51.114;13.914;2024-01-16T03:11:46;4.20;;;3.40;;
18677;SDS011;9469;51.114;13.914;2024-01-16T03:16:51;4.67;;;3.20;;
18677;SDS011;9469;51.114;13.914;2024-01-16T03:22:00;4.80;;;3.77;;
18677;SDS011;9469;51.114;13.914;2024-01-16T03:27:09;2.97;;;2.73;;
18677;SDS011;9469;51.114;13.914;2024-01-16T03:32:14;3.03;;;2.67;;
18677;SDS011;9469;51.114;13.914;2024-01-16T03:37:19;5.47;;;3.10;;
18677;SDS011;9469;51.114;13.914;2024-01-16T03:42:27;8.00;;;3.20;;
18677;SDS011;9469;51.114;13.914;2024-01-16T03:47:32;4.57;;;2.67;;
18677;SDS011;9469;51.114;13.914;2024-01-16T03:52:38;4.30;;;2.73;;
18677;SDS011;9469;51.114;13.914;2024-01-16T03:57:46;6.47;;;2.83;;
18677;SDS011;9469;51.114;13.914;2024-01-16T04:02:52;4.97;;;3.00;;
18677;SDS011;9469;51.114;13.914;2024-01-16T04:07:58;5.67;;;3.00;;
18677;SDS011;9469;51.114;13.914;2024-01-16T04:13:07;3.23;;;2.90;;
18677;SDS011;9469;51.114;13.914;2024-01-16T04:18:13;5.33;;;3.03;;
18677;SDS011;9469;51.114;13.914;2024-01-16T04:23:19;5.00;;;3.07;;
18677;SDS011;9469;51.114;13.914;2024-01-16T04:28:27;5.43;;;3.27;;
18677;SDS011;9469;51.114;13.914;2024-01-16T04:33:32;6.07;;;3.37;;
18677;SDS011;9469;51.114;13.914;2024-01-16T04:38:38;3.93;;;3.00;;
18677;SDS011;9469;51.114;13.914;2024-01-16T04:43:47;3.87;;;2.90;;
18677;SDS011;9469;51.114;13.914;2024-01-16T04:48:53;5.10;;;3.03;;
18677;SDS011;9469;51.114;13.914;2024-01-16T04:53:58;4.23;;;3.00;;
18677;SDS011;9469;51.114;13.914;2024-01-16T04:59:06;6.40;;;2.97;;
18677;SDS011;9469;51.114;13.914;2024-01-16T05:04:11;4.17;;;3.70;;
18677;SDS011;9469;51.114;13.914;2024-01-16T05:09:17;4.60;;;3.33;;
18677;SDS011;9469;51.114;13.914;2024-01-16T05:14:26;3.53;;;3.00;;
18677;SDS011;9469;51.114;13.914;2024-01-16T05:19:31;7.17;;;5.30;;
18677;SDS011;9469;51.114;13.914;2024-01-16T05:24:36;5.10;;;3.17;;
18677;SDS011;9469;51.114;13.914;2024-01-16T05:29:45;5.90;;;3.07;;
18677;SDS011;9469;51.114;13.914;2024-01-16T05:34:51;5.73;;;3.40;;
18677;SDS011;9469;51.114;13.914;2024-01-16T05:39:57;5.03;;;3.53;;
18677;SDS011;9469;51.114;13.914;2024-01-16T05:45:16;6.10;;;2.87;;
18677;SDS011;9469;51.114;13.914;2024-01-16T05:50:21;8.30;;;3.17;;
18677;SDS011;9469;51.114;13.914;2024-01-16T05:55:28;6.93;;;2.93;;
18677;SDS011;9469;51.114;13.914;2024-01-16T06:00:39;6.17;;;3.13;;
18677;SDS011;9469;51.114;13.914;2024-01-16T06:05:45;4.63;;;3.20;;
18677;SDS011;9469;51.114;13.914;2024-01-16T06:10:51;7.77;;;3.70;;
18677;SDS011;9469;51.114;13.914;2024-01-16T06:15:59;9.40;;;4.33;;
18677;SDS011;9469;51.114;13.914;2024-01-16T06:21:08;7.30;;;4.60;;
18677;SDS011;9469;51.114;13.914;2024-01-16T06:26:15;7.20;;;3.70;;
18677;SDS011;9469;51.114;13.914;2024-01-16T06:31:37;10.57;;;3.53;;
18677;SDS011;9469;51.114;13.914;2024-01-16T06:36:45;9.83;;;4.23;;
18677;SDS011;9469;51.114;13.914;2024-01-16T06:41:50;7.10;;;4.70;;
18677;SDS011;9469;51.114;13.914;2024-01-16T06:46:59;4.60;;;4.13;;
18677;SDS011;9469;51.114;13.914;2024-01-16T06:52:05;8.87;;;4.73;;
18677;SDS011;9469;51.114;13.914;2024-01-16T06:57:12;6.87;;;4.57;;
18677;SDS011;9469;51.114;13.914;2024-01-16T07:02:19;6.73;;;4.63;;
18677;SDS011;9469;51.114;13.914;2024-01-16T07:07:30;6.93;;;5.07;;
18677;SDS011;9469;51.114;13.914;2024-01-16T07:12:35;5.93;;;4.83;;
18677;SDS011;9469;51.114;13.914;2024-01-16T07:17:46;9.03;;;5.27;;
18677;SDS011;9469;51.114;13.914;2024-01-16T07:22:52;10.03;;;5.63;;
18677;SDS011;9469;51.114;13.914;2024-01-16T07:27:57;7.20;;;5.30;;
18677;SDS011;9469;51.114;13.914;2024-01-16T07:33:08;8.63;;;4.60;;
18677;SDS011;9469;51.114;13.914;2024-01-16T07:38:14;7.67;;;4.93;;
18677;SDS011;9469;51.114;13.914;2024-01-16T07:43:27;7.17;;;4.43;;
18677;SDS011;9469;51.114;13.914;2024-01-16T07:48:38;8.53;;;4.97;;
18677;SDS011;9469;51.114;13.914;2024-01-16T07:53:48;9.00;;;5.47;;
18677;SDS011;9469;51.114;13.914;2024-01-16T07:59:03;10.43;;;4.50;;
18677;SDS011;9469;51.114;13.914;2024-01-16T08:04:16;6.50;;;4.27;;
18677;SDS011;9469;51.114;13.914;2024-01-16T08:09:23;5.73;;;3.70;;
18677;SDS011;9469;51.114;13.914;2024-01-16T08:14:28;5.20;;;3.87;;
18677;SDS011;9469;51.114;13.914;2024-01-16T08:19:38;8.77;;;4.13;;
18677;SDS011;9469;51.114;13.914;2024-01-16T08:24:46;7.10;;;2.93;;
18677;SDS011;9469;51.114;13.914;2024-01-16T08:29:51;4.87;;;3.47;;
18677;SDS011;9469;51.114;13.914;2024-01-16T08:34:59;8.57;;;4.90;;
18677;SDS011;9469;51.114;13.914;2024-01-16T08:40:06;7.67;;;4.07;;
18677;SDS011;9469;51.114;13.914;2024-01-16T08:45:16;7.00;;;4.65;;
18677;SDS011;9469;51.114;13.914;2024-01-16T08:50:28;7.63;;;3.83;;
18677;SDS011;9469;51.114;13.914;2024-01-16T08:55:40;11.53;;;5.13;;
18677;SDS011;9469;51.114;13.914;2024-01-16T09:00:45;9.43;;;3.73;;
18677;SDS011;9469;51.114;13.914;2024-01-16T09:05:53;5.03;;;3.00;;
18677;SDS011;9469;51.114;13.914;2024-01-16T09:10:58;6.23;;;3.80;;
18677;SDS011;9469;51.114;13.914;2024-01-16T09:16:07;10.63;;;4.53;;
18677;SDS011;9469;51.114;13.914;2024-01-16T09:21:18;9.07;;;4.00;;
18677;SDS011;9469;51.114;13.914;2024-01-16T09:26:28;8.83;;;3.60;;
18677;SDS011;9469;51.114;13.914;2024-01-16T09:31:52;5.47;;;4.00;;
18677;SDS011;9469;51.114;13.914;2024-01-16T09:37:01;5.70;;;4.10;;
18677;SDS011;9469;51.114;13.914;2024-01-16T09:42:07;5.67;;;3.77;;
18677;SDS011;9469;51.114;13.914;2024-01-16T09:47:16;10.27;;;4.33;;
18677;SDS011;9469;51.114;13.914;2024-01-16T09:52:26;7.45;;;4.70;;
18677;SDS011;9469;51.114;13.914;2024-01-16T09:57:34;5.17;;;3.33;;
18677;SDS011;9469;51.114;13.914;2024-01-16T10:02:44;9.23;;;5.00;;
18677;SDS011;9469;51.114;13.914;2024-01-16T10:07:52;6.70;;;4.20;;
18677;SDS011;9469;51.114;13.914;2024-01-16T10:12:59;10.20;;;4.93;;
18677;SDS011;9469;51.114;13.914;2024-01-16T10:18:21;10.10;;;5.50;;
18677;SDS011;9469;51.114;13.914;2024-01-16T10:23:38;5.63;;;3.73;;
18677;SDS011;9469;51.114;13.914;2024-01-16T10:28:46;8.20;;;3.73;;
18677;SDS011;9469;51.114;13.914;2024-01-16T10:33:52;11.35;;;5.07;;
18677;SDS011;9469;51.114;13.914;2024-01-16T10:39:04;7.97;;;4.23;;
18677;SDS011;9469;51.114;13.914;2024-01-16T10:44:10;4.93;;;3.20;;
18677;SDS011;9469;51.114;13.914;2024-01-16T10:49:18;7.43;;;4.10;;
18677;SDS011;9469;51.114;13.914;2024-01-16T10:54:42;9.27;;;5.00;;
18677;SDS011;9469;51.114;13.914;2024-01-16T10:59:55;10.53;;;5.40;;
18677;SDS011;9469;51.114;13.914;2024-01-16T11:05:10;9.40;;;3.97;;
18677;SDS011;9469;51.114;13.914;2024-01-16T11:10:20;9.30;;;5.87;;
18677;SDS011;9469;51.114;13.914;2024-01-16T11:15:26;10.70;;;5.53;;
18677;SDS011;9469;51.114;13.914;2024-01-16T11:20:33;7.47;;;4.70;;
18677;SDS011;9469;51.114;13.914;2024-01-16T11:26:05;8.60;;;4.70;;
18677;SDS011;9469;51.114;13.914;2024-01-16T11:31:32;13.97;;;6.57;;
18677;SDS011;9469;51.114;13.914;2024-01-16T11:36:48;8.53;;;5.20;;
18677;SDS011;9469;51.114;13.914;2024-01-16T11:42:00;10.10;;;5.73;;
18677;SDS011;9469;51.114;13.914;2024-01-16T11:47:07;9.00;;;4.83;;
18677;SDS011;9469;51.114;13.914;2024-01-16T11:57:56;5.53;;;3.57;;
18677;SDS011;9469;51.114;13.914;2024-01-16T12:03:26;8.20;;;4.03;;
18677;SDS011;9469;51.114;13.914;2024-01-16T12:08:42;8.60;;;4.50;;
18677;SDS011;9469;51.114;13.914;2024-01-16T12:19:10;10.37;;;4.83;;
18677;SDS011;9469;51.114;13.914;2024-01-16T12:24:16;7.70;;;3.57;;
18677;SDS011;9469;51.114;13.914;2024-01-16T12:29:25;7.90;;;3.47;;
18677;SDS011;9469;51.114;13.914;2024-01-16T12:34:31;14.63;;;6.13;;
18677;SDS011;9469;51.114;13.914;2024-01-16T12:39:37;12.43;;;4.70;;
18677;SDS011;9469;51.114;13.914;2024-01-16T12:44:46;9.60;;;5.10;;
18677;SDS011;9469;51.114;13.914;2024-01-16T12:49:52;18.50;;;7.80;;
18677;SDS011;9469;51.114;13.914;2024-01-16T12:54:58;5.87;;;3.50;;
18677;SDS011;9469;51.114;13.914;2024-01-16T13:00:25;9.57;;;4.20;;
18677;SDS011;9469;51.114;13.914;2024-01-16T13:05:33;4.97;;;3.67;;
18677;SDS011;9469;51.114;13.914;2024-01-16T13:10:39;9.37;;;3.93;;
18677;SDS011;9469;51.114;13.914;2024-01-16T13:15:51;7.87;;;4.40;;
18677;SDS011;9469;51.114;13.914;2024-01-16T13:20:57;5.90;;;3.50;;
18677;SDS011;9469;51.114;13.914;2024-01-16T13:26:04;9.30;;;4.90;;
18677;SDS011;9469;51.114;13.914;2024-01-16T13:31:14;11.67;;;4.80;;
18677;SDS011;9469;51.114;13.914;2024-01-16T13:36:20;7.97;;;3.80;;
18677;SDS011;9469;51.114;13.914;2024-01-16T13:41:30;8.87;;;4.90;;
18677;SDS011;9469;51.114;13.914;2024-01-16T13:46:38;12.40;;;5.47;;
18677;SDS011;9469;51.114;13.914;2024-01-16T13:52:02;14.17;;;6.07;;
18677;SDS011;9469;51.114;13.914;2024-01-16T13:57:07;7.67;;;3.73;;
18677;SDS011;9469;51.114;13.914;2024-01-16T14:02:19;13.07;;;4.07;;
18677;SDS011;9469;51.114;13.914;2024-01-16T14:07:27;10.53;;;5.53;;
18677;SDS011;9469;51.114;13.914;2024-01-16T14:12:33;13.37;;;5.97;;
18677;SDS011;9469;51.114;13.914;2024-01-16T14:17:42;10.07;;;5.80;;
18677;SDS011;9469;51.114;13.914;2024-01-16T14:22:49;20.23;;;9.10;;
18677;SDS011;9469;51.114;13.914;2024-01-16T14:28:00;8.57;;;4.87;;
18677;SDS011;9469;51.114;13.914;2024-01-16T14:33:26;12.67;;;4.93;;
18677;SDS011;9469;51.114;13.914;2024-01-16T14:38:32;9.00;;;4.20;;
18677;SDS011;9469;51.114;13.914;2024-01-16T14:43:38;14.67;;;8.33;;
18677;SDS011;9469;51.114;13.914;2024-01-16T14:48:48;14.63;;;7.00;;
18677;SDS011;9469;51.114;13.914;2024-01-16T14:53:53;24.90;;;10.03;;
18677;SDS011;9469;51.114;13.914;2024-01-16T14:59:09;17.47;;;7.70;;
18677;SDS011;9469;51.114;13.914;2024-01-16T15:04:20;22.30;;;8.50;;
18677;SDS011;9469;51.114;13.914;2024-01-16T15:09:26;21.50;;;8.90;;
18677;SDS011;9469;51.114;13.914;2024-01-16T15:14:33;5.70;;;4.27;;
18677;SDS011;9469;51.114;13.914;2024-01-16T15:19:41;19.40;;;8.50;;
18677;SDS011;9469;51.114;13.914;2024-01-16T15:24:51;18.70;;;7.60;;
18677;SDS011;9469;51.114;13.914;2024-01-16T15:29:56;43.27;;;9.77;;
18677;SDS011;9469;51.114;13.914;2024-01-16T15:35:10;8.50;;;5.00;;
18677;SDS011;9469;51.114;13.914;2024-01-16T15:40:17;6.27;;;3.80;;
18677;SDS011;9469;51.114;13.914;2024-01-16T15:45:25;6.77;;;4.57;;
18677;SDS011;9469;51.114;13.914;2024-01-16T15:50:37;12.87;;;6.63;;
18677;SDS011;9469;51.114;13.914;2024-01-16T15:55:43;12.30;;;5.67;;
18677;SDS011;9469;51.114;13.914;2024-01-16T16:00:52;9.23;;;6.10;;
18677;SDS011;9469;51.114;13.914;2024-01-16T16:06:01;5.23;;;4.30;;
18677;SDS011;9469;51.114;13.914;2024-01-16T16:11:11;5.37;;;4.10;;
18677;SDS011;9469;51.114;13.914;2024-01-16T16:16:17;8.57;;;3.77;;
18677;SDS011;9469;51.114;13.914;2024-01-16T16:21:25;7.00;;;4.07;;
18677;SDS011;9469;51.114;13.914;2024-01-16T16:26:32;4.80;;;4.30;;
18677;SDS011;9469;51.114;13.914;2024-01-16T16:31:39;10.73;;;4.87;;
18677;SDS011;9469;51.114;13.914;2024-01-16T16:36:49;7.63;;;4.07;;
18677;SDS011;9469;51.114;13.914;2024-01-16T16:41:55;5.67;;;4.07;;
18677;SDS011;9469;51.114;13.914;2024-01-16T16:47:00;7.17;;;4.43;;
18677;SDS011;9469;51.114;13.914;2024-01-16T16:52:09;9.40;;;4.60;;
18677;SDS011;9469;51.114;13.914;2024-01-16T16:57:14;5.53;;;4.03;;
18677;SDS011;9469;51.114;13.914;2024-01-16T17:02:20;4.30;;;3.43;;
18677;SDS011;9469;51.114;13.914;2024-01-16T17:07:28;8.90;;;4.07;;
18677;SDS011;9469;51.114;13.914;2024-01-16T17:12:35;8.73;;;4.40;;
18677;SDS011;9469;51.114;13.914;2024-01-16T17:17:41;6.83;;;4.80;;
18677;SDS011;9469;51.114;13.914;2024-01-16T17:22:49;7.83;;;4.60;;
18677;SDS011;9469;51.114;13.914;2024-01-16T17:27:55;11.40;;;5.47;;
18677;SDS011;9469;51.114;13.914;2024-01-16T17:33:01;7.43;;;5.33;;
18677;SDS011;9469;51.114;13.914;2024-01-16T17:38:12;8.17;;;5.77;;
18677;SDS011;9469;51.114;13.914;2024-01-16T17:43:20;5.60;;;4.90;;
18677;SDS011;9469;51.114;13.914;2024-01-16T17:48:26;9.87;;;5.20;;
18677;SDS011;9469;51.114;13.914;2024-01-16T17:53:36;8.80;;;5.40;;
18677;SDS011;9469;51.114;13.914;2024-01-16T17:58:42;8.40;;;5.53;;
18677;SDS011;9469;51.114;13.914;2024-01-16T18:03:48;6.30;;;4.93;;
18677;SDS011;9469;51.114;13.914;2024-01-16T18:09:01;9.87;;;5.30;;
18677;SDS011;9469;51.114;13.914;2024-01-16T18:14:12;8.20;;;5.00;;
18677;SDS011;9469;51.114;13.914;2024-01-16T18:19:17;9.47;;;6.43;;
18677;SDS011;9469;51.114;13.914;2024-01-16T18:24:26;11.30;;;6.37;;
18677;SDS011;9469;51.114;13.914;2024-01-16T18:29:31;17.90;;;9.60;;
18677;SDS011;9469;51.114;13.914;2024-01-16T18:34:37;12.60;;;8.67;;
18677;SDS011;9469;51.114;13.914;2024-01-16T18:39:48;13.17;;;7.80;;
18677;SDS011;9469;51.114;13.914;2024-01-16T18:44:53;12.80;;;8.70;;
18677;SDS011;9469;51.114;13.914;2024-01-16T18:49:59;15.23;;;9.37;;
18677;SDS011;9469;51.114;13.914;2024-01-16T18:55:07;11.20;;;8.53;;
18677;SDS011;9469;51.114;13.914;2024-01-16T19:00:15;15.37;;;9.93;;
18677;SDS011;9469;51.114;13.914;2024-01-16T19:05:24;14.63;;;9.43;;
18677;SDS011;9469;51.114;13.914;2024-01-16T19:10:32;12.50;;;9.83;;
18677;SDS011;9469;51.114;13.914;2024-01-16T19:15:40;11.77;;;8.17;;
18677;SDS011;9469;51.114;13.914;2024-01-16T19:20:48;11.27;;;7.70;;
18677;SDS011;9469;51.114;13.914;2024-01-16T19:25:58;9.60;;;7.33;;
18677;SDS011;9469;51.114;13.914;2024-01-16T19:31:05;8.53;;;6.10;;
18677;SDS011;9469;51.114;13.914;2024-01-16T19:36:12;13.97;;;6.90;;
18677;SDS011;9469;51.114;13.914;2024-01-16T19:41:21;11.73;;;5.60;;
18677;SDS011;9469;51.114;13.914;2024-01-16T19:46:26;9.27;;;6.63;;
18677;SDS011;9469;51.114;13.914;2024-01-16T19:51:32;8.63;;;6.30;;
18677;SDS011;9469;51.114;13.914;2024-01-16T19:56:40;6.23;;;5.63;;
18677;SDS011;9469;51.114;13.914;2024-01-16T20:01:46;7.43;;;5.13;;
18677;SDS011;9469;51.114;13.914;2024-01-16T20:06:52;8.50;;;5.87;;
18677;SDS011;9469;51.114;13.914;2024-01-16T20:12:01;6.70;;;5.87;;
18677;SDS011;9469;51.114;13.914;2024-01-16T20:17:08;7.87;;;5.77;;
18677;SDS011;9469;51.114;13.914;2024-01-16T20:22:13;7.47;;;5.67;;
18677;SDS011;9469;51.114;13.914;2024-01-16T20:27:21;5.33;;;4.73;;
18677;SDS011;9469;51.114;13.914;2024-01-16T20:32:27;6.37;;;5.40;;
18677;SDS011;9469;51.114;13.914;2024-01-16T20:37:32;9.27;;;5.50;;
18677;SDS011;9469;51.114;13.914;2024-01-16T20:42:41;7.77;;;5.50;;
18677;SDS011;9469;51.114;13.914;2024-01-16T20:47:46;8.80;;;5.57;;
18677;SDS011;9469;51.114;13.914;2024-01-16T20:52:52;9.03;;;5.43;;
18677;SDS011;9469;51.114;13.914;2024-01-16T20:58:00;7.03;;;5.13;;
18677;SDS011;9469;51.114;13.914;2024-01-16T21:03:06;6.03;;;5.10;;
18677;SDS011;9469;51.114;13.914;2024-01-16T21:08:15;6.73;;;5.20;;
18677;SDS011;9469;51.114;13.914;2024-01-16T21:13:24;7.53;;;4.73;;
18677;SDS011;9469;51.114;13.914;2024-01-16T21:18:31;5.07;;;4.57;;
18677;SDS011;9469;51.114;13.914;2024-01-16T21:23:40;7.93;;;5.17;;
18677;SDS011;9469;51.114;13.914;2024-01-16T21:28:49;6.80;;;4.83;;
18677;SDS011;9469;51.114;13.914;2024-01-16T21:33:54;9.27;;;5.37;;
18677;SDS011;9469;51.114;13.914;2024-01-16T21:39:00;10.40;;;4.87;;
18677;SDS011;9469;51.114;13.914;2024-01-16T21:44:10;8.03;;;4.73;;
18677;SDS011;9469;51.114;13.914;2024-01-16T21:49:15;5.27;;;4.10;;
18677;SDS011;9469;51.114;13.914;2024-01-16T21:54:20;4.80;;;3.90;;
18677;SDS011;9469;51.114;13.914;2024-01-16T21:59:28;6.53;;;4.13;;
18677;SDS011;9469;51.114;13.914;2024-01-16T22:04:35;9.70;;;5.27;;
18677;SDS011;9469;51.114;13.914;2024-01-16T22:09:41;6.40;;;5.33;;
18677;SDS011;9469;51.114;13.914;2024-01-16T22:14:49;11.43;;;6.27;;
18677;SDS011;9469;51.114;13.914;2024-01-16T22:19:57;8.87;;;5.93;;
18677;SDS011;9469;51.114;13.914;2024-01-16T22:25:04;6.07;;;5.43;;
18677;SDS011;9469;51.114;13.914;2024-01-16T22:30:13;6.73;;;5.60;;
18677;SDS011;9469;51.114;13.914;2024-01-16T22:35:19;10.13;;;5.60;;
18677;SDS011;9469;51.114;13.914;2024-01-16T22:40:26;8.27;;;5.90;;
18677;SDS011;9469;51.114;13.914;2024-01-16T22:45:35;10.40;;;6.07;;
18677;SDS011;9469;51.114;13.914;2024-01-16T22:50:40;7.43;;;5.67;;
18677;SDS011;9469;51.114;13.914;2024-01-16T22:55:51;7.53;;;6.00;;
18677;SDS011;9469;51.114;13.914;2024-01-16T23:00:59;13.47;;;8.07;;
18677;SDS011;9469;51.114;13.914;2024-01-16T23:06:09;9.50;;;6.40;;
18677;SDS011;9469;51.114;13.914;2024-01-16T23:11:23;11.00;;;6.47;;
18677;SDS011;9469;51.114;13.914;2024-01-16T23:16:31;10.03;;;7.03;;
18677;SDS011;9469;51.114;13.914;2024-01-16T23:21:38;14.67;;;7.40;;
18677;SDS011;9469;51.114;13.914;2024-01-16T23:26:43;10.43;;;7.13;;
18677;SDS011;9469;51.114;13.914;2024-01-16T23:31:52;8.77;;;6.30;;
18677;SDS011;9469;51.114;13.914;2024-01-16T23:36:57;12.63;;;7.23;;
18677;SDS011;9469;51.114;13.914;2024-01-16T23:42:06;9.00;;;6.80;;
18677;SDS011;9469;51.114;13.914;2024-01-16T23:47:19;10.00;;;6.67;;
18677;SDS011;9469;51.114;13.914;2024-01-16T23:52:24;10.83;;;5.73;;
18677;SDS011;9469;51.114;13.914;2024-01-16T23:57:29;6.90;;;6.20;;
